Time;durP1;ratioP1;P1;durP2;ratioP2;P2;SDS_P1;SDS_P2;PMS_P1;PMS_P2;Temp;Humidity;BMP_temperature;BMP_pressure;BME280_temperature;BME280_humidity;BME280_pressure;Samples;Min_cycle;Max_cycle;Signal;HPM_P1;HPM_P2
2022/06/13 00:00:10;;;;;;;2.22;1.10;;;;;;;22.20;37.95;101844.00;5013911;28;20108;-66
2022/06/13 00:02:36;;;;;;;4.05;1.10;;;;;;;22.15;37.96;101840.97;5012528;28;20058;-66
2022/06/13 00:05:03;;;;;;;9.07;3.08;;;;;;;22.11;38.67;101836.88;5012617;28;20033;-67
2022/06/13 00:07:28;;;;;;;4.00;1.40;;;;;;;22.07;38.74;101832.81;5014139;28;20033;-67
2022/06/13 00:09:54;;;;;;;3.78;1.38;;;;;;;22.01;38.44;101839.00;5013822;28;20395;-67
2022/06/13 00:12:19;;;;;;;3.95;1.00;;;;;;;21.97;38.95;101840.41;5014268;28;20486;-66
2022/06/13 00:14:44;;;;;;;5.28;1.52;;;;;;;21.96;38.87;101835.97;5013775;28;20391;-67
2022/06/13 00:17:10;;;;;;;2.90;1.25;;;;;;;21.91;38.55;101832.91;5013783;28;20386;-67
2022/06/13 00:19:36;;;;;;;1.95;1.10;;;;;;;21.86;38.86;101825.22;5012008;28;20034;-67
2022/06/13 00:22:02;;;;;;;2.60;1.48;;;;;;;21.82;38.97;101823.03;5013662;28;20439;-67
2022/06/13 00:24:27;;;;;;;2.55;2.25;;;;;;;21.78;39.31;101824.41;5013809;28;20036;-67
2022/06/13 00:26:52;;;;;;;3.13;1.20;;;;;;;21.74;38.64;101821.19;5013602;28;20037;-67
2022/06/13 00:29:18;;;;;;;5.53;1.33;;;;;;;21.73;39.51;101815.91;5013590;28;20018;-67
2022/06/13 00:31:43;;;;;;;2.90;1.50;;;;;;;21.68;39.21;101821.91;5013709;28;20033;-67
2022/06/13 00:34:08;;;;;;;2.75;1.10;;;;;;;21.63;38.95;101818.00;5013871;28;20026;-67
2022/06/13 00:36:34;;;;;;;6.85;1.60;;;;;;;21.61;39.58;101825.53;5013730;28;20022;-67
2022/06/13 00:38:59;;;;;;;4.85;1.60;;;;;;;21.58;39.63;101817.69;5013389;28;20487;-68
2022/06/13 00:41:28;;;;;;;1.80;1.00;;;;;;;21.53;39.50;101814.63;5012281;28;20480;-67
2022/06/13 00:43:54;;;;;;;1.42;0.95;;;;;;;21.49;39.88;101814.16;5012067;28;20030;-67
2022/06/13 00:46:24;;;;;;;3.25;1.45;;;;;;;21.42;39.74;101810.41;5013426;28;20160;-67
2022/06/13 00:49:02;;;;;;;5.60;1.45;;;;;;;21.36;39.73;101813.84;5013508;28;20037;-67
2022/06/13 00:51:29;;;;;;;4.55;1.40;;;;;;;21.29;39.65;101810.97;5013331;28;20055;-67
2022/06/13 00:53:55;;;;;;;3.25;1.25;;;;;;;21.24;39.68;101807.94;5012139;28;20021;-67
2022/06/13 00:56:22;;;;;;;1.95;0.90;;;;;;;21.19;39.67;101807.59;5013300;28;20036;-69
2022/06/13 00:58:57;;;;;;;2.17;1.40;;;;;;;21.13;40.39;101811.03;5011806;28;20503;-67
2022/06/13 01:01:23;;;;;;;2.45;1.23;;;;;;;21.09;39.68;101806.94;5011698;28;20042;-67
2022/06/13 01:03:49;;;;;;;7.65;1.27;;;;;;;21.06;40.30;101809.97;5017166;28;20594;-66
2022/06/13 01:06:16;;;;;;;3.35;1.33;;;;;;;21.04;40.32;101811.16;5015510;28;20026;-68
2022/06/13 01:08:41;;;;;;;3.95;1.30;;;;;;;21.01;39.95;101808.78;5016771;28;20033;-66
2022/06/13 01:11:17;;;;;;;5.65;1.85;;;;;;;20.97;40.69;101812.88;5015730;28;20096;-67
2022/06/13 01:14:07;;;;;;;3.78;1.80;;;;;;;20.91;40.29;101806.25;5015572;28;20084;-66
2022/06/13 01:16:35;;;;;;;6.53;1.88;;;;;;;20.87;40.79;101821.25;5015186;28;20391;-67
2022/06/13 01:19:37;;;;;;;5.35;1.58;;;;;;;20.82;40.50;101815.47;5016639;28;20022;-68
2022/06/13 01:22:05;;;;;;;4.78;1.40;;;;;;;20.80;40.41;101817.50;5015410;28;20368;-67
2022/06/13 01:24:52;;;;;;;3.20;1.50;;;;;;;20.75;40.91;101817.16;5016627;28;20503;-67
2022/06/13 01:27:23;;;;;;;6.28;2.20;;;;;;;20.72;40.80;101817.50;5016372;28;20021;-67
2022/06/13 01:30:32;;;;;;;5.85;1.75;;;;;;;20.69;40.91;101817.84;5016402;28;20036;-67
2022/06/13 01:33:09;;;;;;;4.18;1.98;;;;;;;20.66;40.93;101815.47;5016181;28;20026;-67
2022/06/13 01:35:48;;;;;;;2.83;1.48;;;;;;;20.65;40.76;101821.94;5015110;28;20030;-67
2022/06/13 01:38:42;;;;;;;5.38;1.58;;;;;;;20.62;40.58;101822.28;5014982;28;20466;-67
2022/06/13 01:41:24;;;;;;;2.80;1.30;;;;;;;20.61;40.83;101824.13;5014964;28;20050;-67
2022/06/13 01:43:54;;;;;;;2.53;1.20;;;;;;;20.62;40.92;101835.88;5016120;28;20028;-67
2022/06/13 01:46:28;;;;;;;7.70;1.60;;;;;;;20.62;41.26;101830.44;5014901;28;20030;-66
2022/06/13 01:49:23;;;;;;;2.33;1.60;;;;;;;20.63;41.28;101835.72;5016589;28;20032;-67
2022/06/13 01:51:55;;;;;;;5.32;1.40;;;;;;;20.62;40.76;101833.16;5016057;28;20494;-67
2022/06/13 01:54:24;;;;;;;3.20;1.27;;;;;;;20.58;41.01;101832.66;5014898;28;20057;-67
2022/06/13 01:57:13;;;;;;;8.18;1.73;;;;;;;20.55;40.74;101832.13;5016027;28;20025;-67
2022/06/13 02:00:06;;;;;;;2.50;1.30;;;;;;;20.52;40.96;101827.06;5014845;28;20105;-67
2022/06/13 02:02:39;;;;;;;5.90;1.45;;;;;;;20.50;41.04;101823.63;5010031;28;20061;-67
2022/06/13 02:05:07;;;;;;;2.78;1.55;;;;;;;20.47;40.79;101816.66;5014417;28;20372;-67
2022/06/13 02:07:43;;;;;;;5.53;1.52;;;;;;;20.44;41.49;101818.84;5014585;28;20119;-67
2022/06/13 02:10:18;;;;;;;2.83;1.83;;;;;;;20.40;41.26;101814.78;5014470;28;20026;-67
2022/06/13 02:12:46;;;;;;;2.00;1.88;;;;;;;20.35;41.55;101812.56;5013819;28;20022;-68
2022/06/13 02:15:16;;;;;;;2.25;1.27;;;;;;;20.31;41.62;101808.47;5013923;28;20483;-67
2022/06/13 02:17:46;;;;;;;4.20;1.70;;;;;;;20.28;41.20;101804.22;5015952;28;20045;-67
2022/06/13 02:20:20;;;;;;;3.35;2.10;;;;;;;20.27;41.51;101807.94;5013963;28;20030;-68
2022/06/13 02:22:53;;;;;;;5.20;1.60;;;;;;;20.25;41.50;101804.56;5013998;28;20411;-67
2022/06/13 02:25:33;;;;;;;6.25;1.48;;;;;;;20.25;41.29;101804.56;5014239;28;20542;-66
2022/06/13 02:28:07;;;;;;;3.45;1.40;;;;;;;20.22;41.69;101796.69;5015497;28;20037;-67
2022/06/13 02:30:40;;;;;;;2.10;1.25;;;;;;;20.21;41.36;101791.44;5015168;28;20026;-68
2022/06/13 02:33:10;;;;;;;2.03;1.10;;;;;;;20.18;41.37;101787.16;4997537;28;20029;-67
2022/06/13 02:35:48;;;;;;;9.15;1.60;;;;;;;20.17;41.58;101787.34;5014029;28;20511;-67
2022/06/13 02:38:19;;;;;;;1.83;1.30;;;;;;;20.16;42.10;101789.19;5013902;28;20036;-67
2022/06/13 02:40:58;;;;;;;5.45;2.42;;;;;;;20.15;41.75;101792.09;5014077;28;20534;-68
2022/06/13 02:43:26;;;;;;;6.68;2.25;;;;;;;20.15;42.01;101787.50;5013765;28;20022;-66
2022/06/13 02:45:54;;;;;;;6.88;1.63;;;;;;;20.18;41.71;101791.78;5014696;28;20034;-68
2022/06/13 02:48:38;;;;;;;2.97;1.45;;;;;;;20.17;42.07;101790.91;5013672;28;20030;-67
2022/06/13 02:51:11;;;;;;;2.55;1.40;;;;;;;20.17;41.66;101792.78;5013241;28;20419;-67
2022/06/13 02:53:56;;;;;;;;;;;;;;;20.17;41.87;101798.22;5013613;28;20479;-67
2022/06/13 02:59:40;;;;;;;7.20;2.00;;;;;;;20.14;41.59;101791.25;5014963;28;20530;-67
2022/06/13 03:02:07;;;;;;;1.55;1.38;;;;;;;20.16;41.04;101788.34;5014786;28;20132;-67
2022/06/13 03:04:43;;;;;;;2.65;1.55;;;;;;;20.17;42.17;101784.63;5014953;28;20020;-67
2022/06/13 03:07:23;;;;;;;9.15;2.08;;;;;;;20.20;42.34;101785.13;5013650;28;20025;-67
2022/06/13 03:09:56;;;;;;;6.13;2.13;;;;;;;20.23;42.30;101786.66;5014591;28;20390;-67
2022/06/13 03:12:21;;;;;;;2.65;1.63;;;;;;;20.25;41.98;101793.66;4997073;28;20029;-68
2022/06/13 03:14:56;;;;;;;4.40;2.20;;;;;;;20.31;42.44;101792.16;5014599;28;20026;-67
2022/06/13 03:17:41;;;;;;;3.53;1.63;;;;;;;20.38;42.39;101798.59;5014609;28;20065;-67
2022/06/13 03:20:15;;;;;;;2.88;1.92;;;;;;;20.46;42.12;101789.59;5013291;28;20523;-66
2022/06/13 03:22:53;;;;;;;5.40;1.70;;;;;;;20.53;42.12;101790.63;5014481;28;20025;-66
2022/06/13 03:25:33;;;;;;;5.93;1.92;;;;;;;20.63;42.54;101796.75;5013386;28;20080;-67
2022/06/13 03:28:03;;;;;;;7.57;2.58;;;;;;;20.73;41.79;101794.69;5013387;28;20549;-67
2022/06/13 03:30:30;;;;;;;3.97;1.80;;;;;;;20.82;42.31;101796.41;4996882;28;20418;-68
2022/06/13 03:35:47;;;;;;;4.82;2.80;;;;;;;20.97;42.24;101786.47;5013147;28;20087;-67
2022/06/13 03:38:19;;;;;;;7.47;2.10;;;;;;;21.02;41.94;101781.34;5013561;28;20032;-66
2022/06/13 03:40:49;;;;;;;7.18;2.60;;;;;;;21.08;42.63;101786.16;5012781;28;20444;-67
2022/06/13 03:43:19;;;;;;;4.40;2.78;;;;;;;21.11;42.04;101779.50;5012601;28;20053;-67
2022/06/13 03:45:51;;;;;;;12.65;3.75;;;;;;;21.16;42.37;101777.94;5013193;28;20423;-67
2022/06/13 03:48:20;;;;;;;6.20;2.00;;;;;;;21.21;42.11;101777.44;4996639;28;20428;-67
2022/06/13 03:50:53;;;;;;;7.18;2.65;;;;;;;21.27;41.71;101784.94;5013273;28;20034;-67
2022/06/13 03:53:23;;;;;;;5.55;1.60;;;;;;;21.31;42.35;101787.13;5012710;28;20041;-66
2022/06/13 03:56:10;;;;;;;4.05;2.15;;;;;;;21.35;41.53;101799.38;5012984;28;20479;-67
2022/06/13 03:58:39;;;;;;;7.28;1.83;;;;;;;21.39;41.89;101811.63;5012848;28;20033;-67
2022/06/13 04:01:20;;;;;;;3.47;1.80;;;;;;;21.45;42.12;101816.38;5013755;28;20197;-67
2022/06/13 04:03:46;;;;;;;8.75;2.28;;;;;;;21.47;41.46;101817.03;5013021;28;20033;-67
2022/06/13 04:06:36;;;;;;;5.32;2.17;;;;;;;21.52;42.01;101810.22;5013974;28;20022;-67
2022/06/13 04:09:09;;;;;;;4.78;2.28;;;;;;;21.54;41.87;101813.63;5013940;28;20026;-67
2022/06/13 04:11:53;;;;;;;;;;;;;;;21.57;42.52;101810.53;5014261;28;20035;-66
2022/06/13 04:14:43;;;;;;;3.00;1.30;;;;;;;21.55;42.29;101824.34;5013631;28;19909;-67
2022/06/13 04:17:46;;;;;;;2.88;1.73;;;;;;;21.55;42.21;101823.50;4995751;28;20034;-67
2022/06/13 04:20:36;;;;;;;4.60;1.63;;;;;;;21.53;42.47;101811.91;5012788;28;20129;-67
2022/06/13 04:23:10;;;;;;;6.50;2.05;;;;;;;21.55;43.00;101818.91;5013809;28;20022;-67
2022/06/13 04:25:49;;;;;;;5.97;2.47;;;;;;;21.61;42.48;101820.91;5012824;28;20096;-67
2022/06/13 04:28:25;;;;;;;7.78;2.08;;;;;;;21.62;42.77;101819.88;5012249;28;20109;-67
2022/06/13 04:30:53;;;;;;;11.15;2.08;;;;;;;21.60;42.37;101819.22;5012642;28;20029;-67
2022/06/13 04:33:41;;;;;;;6.13;2.10;;;;;;;21.62;42.30;101816.31;5012382;28;20026;-68
2022/06/13 04:36:10;;;;;;;6.25;2.15;;;;;;;21.61;42.28;101829.09;5012555;28;20014;-68
2022/06/13 04:38:36;;;;;;;6.45;2.53;;;;;;;21.65;42.46;101829.59;5016052;28;20033;-67
2022/06/13 04:41:04;;;;;;;11.90;2.10;;;;;;;21.70;43.36;101835.34;5016116;28;20041;-67
2022/06/13 04:43:34;;;;;;;6.85;2.00;;;;;;;21.74;43.05;101836.72;5016213;28;20510;-68
2022/06/13 04:46:02;;;;;;;4.38;2.15;;;;;;;21.79;42.67;101837.03;5016765;28;20022;-67
2022/06/13 04:48:27;;;;;;;6.90;2.22;;;;;;;21.81;42.07;101832.22;5016910;28;20030;-67
2022/06/13 04:51:07;;;;;;;2.70;1.67;;;;;;;21.85;42.49;101833.59;5015888;28;20032;-67
2022/06/13 04:53:57;;;;;;;7.90;2.70;;;;;;;21.90;42.62;101842.13;5015817;28;20032;-68
2022/06/13 04:56:23;;;;;;;4.75;1.85;;;;;;;21.92;43.02;101842.78;5010247;28;20041;-67
2022/06/13 04:58:52;;;;;;;5.40;2.70;;;;;;;21.94;42.58;101838.03;5016218;28;20081;-68
2022/06/13 05:01:24;;;;;;;7.30;2.28;;;;;;;21.99;42.50;101841.06;5017115;28;20045;-67
2022/06/13 05:03:50;;;;;;;9.10;2.97;;;;;;;22.05;42.11;101834.88;5016734;28;20029;-66
2022/06/13 05:06:23;;;;;;;5.55;2.30;;;;;;;22.08;43.14;101842.72;4999344;28;20037;-67
2022/06/13 05:08:54;;;;;;;9.48;3.28;;;;;;;22.16;42.74;101853.59;5015824;28;20022;-67
2022/06/13 05:11:27;;;;;;;10.00;2.33;;;;;;;22.26;42.70;101848.75;5015668;28;20033;-68
2022/06/13 05:14:01;;;;;;;7.50;2.47;;;;;;;22.28;42.91;101849.41;5016808;28;20475;-67
2022/06/13 05:17:03;;;;;;;7.75;2.00;;;;;;;22.34;42.38;101854.13;5016558;28;20495;-67
2022/06/13 05:19:35;;;;;;;9.13;2.53;;;;;;;22.37;42.01;101859.25;5016819;28;20089;-68
2022/06/13 05:22:28;;;;;;;6.47;2.50;;;;;;;22.38;43.05;101855.50;5015341;28;20278;-67
2022/06/13 05:25:12;;;;;;;10.35;3.40;;;;;;;22.42;41.84;101856.81;4998967;28;20080;-68
2022/06/13 05:27:38;;;;;;;5.65;1.98;;;;;;;22.39;43.04;101857.16;5016062;28;20021;-67
2022/06/13 05:30:03;;;;;;;4.82;3.00;;;;;;;22.43;41.92;101861.25;5016411;28;20548;-67
2022/06/13 05:32:29;;;;;;;5.40;2.10;;;;;;;22.41;42.92;101863.31;5016165;28;20426;-67
2022/06/13 05:34:54;;;;;;;7.95;2.17;;;;;;;22.40;42.90;101867.06;5016526;28;20117;-67
2022/06/13 05:37:20;;;;;;;13.10;2.65;;;;;;;22.43;42.10;101864.00;5016289;28;20498;-67
2022/06/13 05:39:45;;;;;;;7.45;3.00;;;;;;;22.55;42.66;101865.28;5016027;28;20076;-66
2022/06/13 05:42:12;;;;;;;7.18;2.13;;;;;;;22.71;41.82;101872.50;5016369;28;20475;-68
2022/06/13 05:44:37;;;;;;;12.15;2.75;;;;;;;22.72;42.78;101876.09;5016320;28;20109;-67
2022/06/13 05:47:03;;;;;;;8.02;2.67;;;;;;;22.75;42.88;101875.75;5016371;28;20097;-67
2022/06/13 05:49:29;;;;;;;12.25;3.53;;;;;;;22.80;42.41;101878.78;5014519;28;20018;-67
2022/06/13 05:51:55;;;;;;;8.30;2.97;;;;;;;22.79;42.76;101877.06;5014965;28;20079;-67
2022/06/13 05:54:20;;;;;;;8.75;2.85;;;;;;;22.81;42.79;101880.47;5014793;28;20391;-67
2022/06/13 05:56:46;;;;;;;5.80;2.78;;;;;;;22.85;42.50;101890.00;5015828;28;20030;-66
2022/06/13 05:59:11;;;;;;;14.07;2.47;;;;;;;22.91;42.02;101892.84;5015939;28;20029;-67
2022/06/13 06:01:37;;;;;;;7.40;2.42;;;;;;;22.95;42.28;101894.16;5015276;28;20062;-67
2022/06/13 06:04:03;;;;;;;4.55;2.67;;;;;;;23.03;41.94;101896.81;5015974;28;20112;-66
2022/06/13 06:06:29;;;;;;;8.10;2.65;;;;;;;23.16;41.52;101890.75;5015651;28;20403;-67
2022/06/13 06:08:55;;;;;;;11.50;2.85;;;;;;;23.26;41.88;101896.78;5014680;28;20025;-67
2022/06/13 06:11:25;;;;;;;11.38;3.15;;;;;;;23.33;41.58;101892.28;5014721;28;20044;-67
2022/06/13 06:13:51;;;;;;;6.85;2.53;;;;;;;23.72;41.72;101898.38;5014505;28;20487;-67
2022/06/13 06:16:19;;;;;;;10.55;2.65;;;;;;;24.11;41.00;101902.72;5014334;28;20028;-67
2022/06/13 06:18:45;;;;;;;7.03;2.67;;;;;;;24.39;41.64;101900.97;5015827;28;20021;-67
2022/06/13 06:21:10;;;;;;;6.68;2.80;;;;;;;24.60;41.22;101906.44;5015407;28;20383;-67
2022/06/13 06:23:36;;;;;;;8.77;3.58;;;;;;;25.01;40.83;101897.63;5015634;28;20039;-67
2022/06/13 06:26:03;;;;;;;9.73;3.40;;;;;;;25.36;40.97;101885.66;5015216;28;20443;-67
2022/06/13 06:28:28;;;;;;;12.00;3.05;;;;;;;25.42;40.71;101891.19;5015545;28;20040;-67
2022/06/13 06:30:55;;;;;;;8.07;3.25;;;;;;;25.39;40.66;101891.59;5011569;28;20472;-68
2022/06/13 06:33:21;;;;;;;9.50;3.60;;;;;;;25.44;40.35;101904.69;5015338;28;20109;-67
2022/06/13 06:35:48;;;;;;;7.97;2.47;;;;;;;25.78;40.20;101892.94;5014824;28;20021;-67
2022/06/13 06:38:14;;;;;;;13.10;3.05;;;;;;;26.15;39.38;101897.16;5013763;28;20383;-67
2022/06/13 06:40:39;;;;;;;13.80;3.05;;;;;;;26.43;39.73;101897.88;5013707;28;20052;-67
2022/06/13 06:43:05;;;;;;;15.45;3.42;;;;;;;26.62;39.54;101894.34;5014908;28;20025;-67
2022/06/13 06:45:31;;;;;;;12.35;4.43;;;;;;;26.88;39.17;101893.56;5014682;28;20522;-68
2022/06/13 06:47:57;;;;;;;13.63;3.33;;;;;;;27.11;39.20;101897.59;5013276;28;20033;-68
2022/06/13 06:50:25;;;;;;;9.32;2.88;;;;;;;27.34;39.23;101901.81;5014451;28;20054;-67
2022/06/13 06:52:50;;;;;;;12.02;4.03;;;;;;;27.48;38.85;101898.88;5014514;28;20079;-68
2022/06/13 07:00:50;;;;;;;15.40;4.03;;;;;;;28.44;38.30;101912.78;5013710;28;20470;-68
2022/06/13 07:03:16;;;;;;;13.82;3.75;;;;;;;28.23;37.77;101912.00;5014389;28;20026;-68
2022/06/13 07:05:42;;;;;;;12.93;3.17;;;;;;;28.28;38.25;101908.63;5013302;28;20030;-67
2022/06/13 07:08:07;;;;;;;17.77;2.85;;;;;;;28.28;37.84;101912.19;5014476;28;20025;-68
2022/06/13 07:10:33;;;;;;;9.38;2.55;;;;;;;28.47;37.50;101912.34;5013147;28;20022;-67
2022/06/13 07:12:58;;;;;;;10.52;3.58;;;;;;;28.71;37.39;101914.34;5014344;28;20029;-68
2022/06/13 07:15:24;;;;;;;10.07;2.80;;;;;;;28.96;35.93;101912.47;5014351;28;20384;-67
2022/06/13 07:17:49;;;;;;;13.35;2.35;;;;;;;29.20;35.69;101911.63;5013232;28;20159;-67
2022/06/13 07:20:15;;;;;;;8.73;3.92;;;;;;;29.43;35.41;101906.34;5014227;28;20017;-68
2022/06/13 07:22:51;;;;;;;8.10;2.60;;;;;;;29.69;35.68;101915.44;5014357;28;20033;-67
2022/06/13 07:25:20;;;;;;;6.43;2.25;;;;;;;30.04;35.13;101911.03;5013948;28;20021;-68
2022/06/13 07:27:45;;;;;;;10.98;2.20;;;;;;;30.36;34.56;101911.69;5013790;28;20120;-67
2022/06/13 07:30:12;;;;;;;11.32;2.92;;;;;;;30.63;34.42;101909.44;5013871;28;20148;-67
2022/06/13 07:32:38;;;;;;;4.70;2.50;;;;;;;30.85;34.17;101916.13;5013577;28;20026;-67
2022/06/13 07:35:04;;;;;;;7.65;2.08;;;;;;;30.82;34.13;101919.38;5012594;28;20033;-67
2022/06/13 07:40:13;;;;;;;8.88;2.58;;;;;;;30.98;33.85;101927.88;5013674;28;20407;-68
2022/06/13 07:42:46;;;;;;;8.57;2.33;;;;;;;30.90;33.81;101928.19;5013639;28;20025;-68
2022/06/13 07:45:15;;;;;;;7.95;2.33;;;;;;;31.01;34.08;101926.53;5012449;28;20033;-68
2022/06/13 07:47:40;;;;;;;11.43;2.92;;;;;;;30.90;33.97;101930.94;5012491;28;20030;-68
2022/06/13 07:50:06;;;;;;;12.32;2.78;;;;;;;30.86;33.82;101934.41;5012424;28;20026;-67
2022/06/13 07:52:32;;;;;;;7.63;1.90;;;;;;;30.81;33.83;101932.34;5013910;28;20026;-67
2022/06/13 07:54:57;;;;;;;7.88;2.88;;;;;;;30.87;33.36;101936.09;5013490;28;20365;-68
2022/06/13 07:57:23;;;;;;;8.45;2.85;;;;;;;31.09;32.75;101932.59;5013417;28;20088;-67
2022/06/13 07:59:48;;;;;;;17.05;2.10;;;;;;;31.36;32.81;101929.34;5013857;28;20014;-67
2022/06/13 08:02:16;;;;;;;8.35;2.20;;;;;;;31.41;32.60;101933.09;5013463;28;20069;-68
2022/06/13 08:04:41;;;;;;;8.43;2.80;;;;;;;31.77;32.11;101939.53;5012270;28;20080;-67
2022/06/13 08:07:13;;;;;;;8.55;2.15;;;;;;;31.95;31.86;101939.34;5013358;28;20033;-68
2022/06/13 08:09:39;;;;;;;6.38;2.78;;;;;;;32.08;31.74;101944.66;5013531;28;20022;-68
2022/06/13 08:12:06;;;;;;;9.40;3.15;;;;;;;32.31;30.80;101943.75;5016610;28;20088;-68
2022/06/13 08:14:31;;;;;;;10.25;2.70;;;;;;;32.45;30.95;101946.00;5016275;28;20476;-67
2022/06/13 08:16:56;;;;;;;11.38;3.33;;;;;;;32.63;31.21;101947.81;5017490;28;20037;-68
2022/06/13 08:19:22;;;;;;;7.85;2.33;;;;;;;32.84;30.10;101950.69;5017267;28;20022;-67
2022/06/13 08:21:47;;;;;;;8.18;2.30;;;;;;;32.57;30.38;101955.19;5016066;28;20029;-67
2022/06/13 08:24:13;;;;;;;12.07;2.67;;;;;;;32.84;30.30;101956.25;5017248;28;20087;-67
2022/06/13 08:26:38;;;;;;;12.88;1.92;;;;;;;32.32;31.17;101951.84;5017205;28;20030;-68
2022/06/13 08:29:05;;;;;;;3.65;1.58;;;;;;;31.87;31.05;101960.00;5017150;28;20062;-68
2022/06/13 08:31:31;;;;;;;5.43;1.90;;;;;;;31.43;31.38;101971.66;5016939;28;20018;-68
2022/06/13 08:33:57;;;;;;;7.63;2.10;;;;;;;31.02;31.26;101966.97;5016914;28;20077;-67
2022/06/13 08:36:22;;;;;;;3.45;1.88;;;;;;;30.68;31.47;101970.44;5015773;28;20076;-68
2022/06/13 08:38:48;;;;;;;7.00;1.73;;;;;;;30.37;31.48;101972.34;5016949;28;20030;-67
2022/06/13 08:41:34;;;;;;;8.02;1.42;;;;;;;30.07;31.30;101973.31;5017303;28;20109;-67
2022/06/13 08:44:05;;;;;;;8.63;1.85;;;;;;;29.77;31.68;101984.22;5017064;28;20100;-67
2022/06/13 08:46:48;;;;;;;5.00;1.73;;;;;;;30.28;30.77;101976.47;5016964;28;20084;-68
2022/06/13 08:49:20;;;;;;;5.55;1.83;;;;;;;30.89;30.40;101972.69;5016664;28;20068;-67
2022/06/13 08:51:48;;;;;;;9.65;2.13;;;;;;;31.43;30.28;101971.66;5015537;28;20030;-68
2022/06/13 08:54:25;;;;;;;8.52;2.63;;;;;;;31.67;29.54;101979.75;5015475;28;20036;-68
2022/06/13 08:56:51;;;;;;;5.72;2.13;;;;;;;32.09;29.39;101974.94;5016581;28;20038;-68
2022/06/13 08:59:25;;;;;;;8.43;2.03;;;;;;;32.20;29.82;101976.00;5015380;28;20402;-68
2022/06/13 09:02:19;;;;;;;7.20;1.65;;;;;;;31.98;29.70;101983.25;5015171;28;20045;-67
2022/06/13 09:04:58;;;;;;;9.15;1.70;;;;;;;31.96;30.23;101985.41;5013919;28;20037;-66
2022/06/13 09:07:32;;;;;;;5.75;1.52;;;;;;;31.71;30.33;101992.03;5015304;28;20022;-67
2022/06/13 09:10:15;;;;;;;5.95;1.85;;;;;;;31.43;30.16;101991.88;5015114;28;20448;-67
2022/06/13 09:13:16;;;;;;;12.02;1.45;;;;;;;31.79;29.91;102003.88;5016368;28;20026;-67
2022/06/13 09:15:48;;;;;;;5.88;1.67;;;;;;;31.47;30.21;101995.88;5007238;28;20176;-67
2022/06/13 09:18:41;;;;;;;4.30;1.30;;;;;;;31.31;29.84;102002.09;5015042;28;20080;-67
2022/06/13 09:21:18;;;;;;;9.50;2.30;;;;;;;31.08;30.10;102000.09;5014888;28;20021;-67
2022/06/13 09:23:50;;;;;;;5.40;1.50;;;;;;;31.16;29.93;102004.44;5014253;28;20069;-67
2022/06/13 09:26:46;;;;;;;8.15;2.05;;;;;;;31.39;29.69;102007.28;5014926;28;20038;-67
2022/06/13 09:29:23;;;;;;;7.20;1.60;;;;;;;32.03;28.79;102005.56;5009563;28;20029;-67
2022/06/13 09:31:54;;;;;;;4.40;2.05;;;;;;;32.39;29.40;102001.63;5016234;28;20041;-68
2022/06/13 09:34:36;;;;;;;6.80;2.05;;;;;;;32.87;28.47;101998.50;5014760;28;20029;-68
2022/06/13 09:37:08;;;;;;;5.68;1.65;;;;;;;33.38;28.21;102006.72;5014880;28;20435;-68
2022/06/13 09:39:33;;;;;;;;;;;;;;;33.08;28.96;102003.38;5016554;28;20032;-67
2022/06/13 09:42:05;;;;;;;8.93;2.30;;;;;;;33.05;29.60;102006.63;5015908;28;19992;-68
2022/06/13 09:44:36;;;;;;;6.30;2.13;;;;;;;32.79;28.68;102006.16;5016070;28;20030;-67
2022/06/13 09:47:08;;;;;;;6.82;2.00;;;;;;;32.52;29.61;102006.94;5015798;28;20022;-67
2022/06/13 09:49:52;;;;;;;8.68;2.25;;;;;;;32.26;28.95;102011.09;5014434;28;20022;-67
2022/06/13 09:52:37;;;;;;;7.85;2.13;;;;;;;32.05;28.96;102011.75;5015595;28;20030;-68
2022/06/13 09:55:29;;;;;;;6.22;2.10;;;;;;;31.86;28.81;102023.97;5015282;28;20488;-68
2022/06/13 09:58:05;;;;;;;6.30;1.70;;;;;;;31.60;28.93;102020.59;5014340;28;20503;-68
2022/06/13 10:00:39;;;;;;;6.88;1.60;;;;;;;31.56;28.59;102018.53;5015195;28;20383;-67
2022/06/13 10:03:11;;;;;;;8.52;1.80;;;;;;;31.58;28.81;102021.91;5015708;28;20394;-66
2022/06/13 10:05:46;;;;;;;6.88;1.65;;;;;;;31.51;29.01;102027.59;5015328;28;20561;-67
2022/06/13 10:08:21;;;;;;;4.30;1.30;;;;;;;31.21;29.17;102026.75;5014136;28;20026;-67
2022/06/13 10:11:17;;;;;;;5.18;1.48;;;;;;;30.92;29.39;102038.66;5013925;28;20026;-67
2022/06/13 10:14:06;;;;;;;3.78;1.60;;;;;;;30.66;29.27;102028.78;4999966;28;20095;-67
2022/06/13 10:16:46;;;;;;;6.28;1.88;;;;;;;30.47;29.11;102039.00;5015162;28;20030;-67
2022/06/13 10:19:53;;;;;;;3.45;1.13;;;;;;;30.85;28.88;102033.19;5015057;28;20030;-67
2022/06/13 10:22:27;;;;;;;3.13;1.92;;;;;;;31.66;28.51;102036.25;5013758;28;20124;-66
2022/06/13 10:24:55;;;;;;;4.88;1.83;;;;;;;32.55;27.27;102034.22;5013800;28;20025;-67
2022/06/13 10:27:39;;;;;;;5.70;2.25;;;;;;;33.30;27.79;102021.00;5014866;28;20053;-67
2022/06/13 10:30:42;;;;;;;6.82;2.10;;;;;;;34.02;27.39;102029.44;5014844;28;20441;-68
2022/06/13 10:33:15;;;;;;;;;;;;;;;33.61;27.38;102023.25;5001844;28;20491;-68
2022/06/13 10:35:59;;;;;;;4.28;1.23;;;;;;;33.27;26.99;102024.28;5012576;28;19952;-68
2022/06/13 10:38:48;;;;;;;5.80;2.53;;;;;;;32.87;27.52;102015.16;5014696;28;20084;-69
2022/06/13 10:41:13;;;;;;;5.20;1.10;;;;;;;32.58;27.32;102031.78;5013516;28;20014;-67
2022/06/13 10:43:42;;;;;;;3.92;1.13;;;;;;;32.35;27.64;102029.06;5014769;28;20101;-68
2022/06/13 10:46:10;;;;;;;3.53;0.90;;;;;;;32.13;27.67;102022.47;5014627;28;20125;-68
2022/06/13 10:48:39;;;;;;;2.75;0.90;;;;;;;31.93;27.61;102033.03;5013282;28;20112;-68
2022/06/13 10:51:05;;;;;;;4.28;1.08;;;;;;;31.73;27.57;102035.31;5014385;28;20028;-67
2022/06/13 10:53:38;;;;;;;5.60;0.85;;;;;;;31.50;27.56;102036.97;5014404;28;20022;-68
2022/06/13 10:56:22;;;;;;;3.17;0.60;;;;;;;31.31;27.70;102040.88;5070734;28;20383;-67
2022/06/13 10:58:50;;;;;;;1.65;0.80;;;;;;;31.23;27.83;102032.06;5049404;28;20033;-67
2022/06/13 11:01:20;;;;;;;4.90;1.33;;;;;;;31.40;27.34;102036.69;5050743;28;20096;-67
2022/06/13 11:04:22;;;;;;;5.35;0.90;;;;;;;32.34;27.03;102037.59;5049384;28;20441;-68
2022/06/13 11:06:54;;;;;;;3.90;1.00;;;;;;;32.16;27.45;102030.28;5050454;28;20018;-68
2022/06/13 11:09:35;;;;;;;1.48;0.82;;;;;;;31.89;27.29;102040.13;5050483;28;20029;-67
2022/06/13 11:12:23;;;;;;;3.30;0.85;;;;;;;31.66;27.56;102030.72;5050452;28;20025;-67
2022/06/13 11:23:14;;;;;;;1.98;1.05;;;;;;;34.27;26.07;102038.19;5050256;28;20406;-68
2022/06/13 11:25:40;;;;;;;2.72;1.08;;;;;;;35.01;25.62;102023.53;5049439;28;20088;-67
2022/06/13 11:28:10;;;;;;;3.85;1.27;;;;;;;35.82;25.00;102029.91;5050126;28;20048;-67
2022/06/13 11:30:40;;;;;;;5.28;0.77;;;;;;;35.72;25.04;102024.25;5048816;28;20445;-68
2022/06/13 11:33:14;;;;;;;3.00;0.82;;;;;;;35.41;24.44;102022.28;5050442;28;20022;-67
2022/06/13 11:35:40;;;;;;;3.38;0.82;;;;;;;35.80;23.99;102026.53;5049091;28;20029;-67
2022/06/13 11:38:19;;;;;;;2.17;0.70;;;;;;;36.57;23.48;102020.34;5050200;28;20486;-68
2022/06/13 11:40:46;;;;;;;2.53;0.80;;;;;;;35.71;24.50;102022.56;5050035;28;20024;-67
2022/06/13 11:43:20;;;;;;;1.92;1.00;;;;;;;34.98;24.43;102026.84;5049926;28;20059;-68
2022/06/13 11:45:57;;;;;;;5.20;1.08;;;;;;;34.41;24.25;102033.94;5048709;28;20506;-67
2022/06/13 11:48:22;;;;;;;3.90;0.77;;;;;;;33.94;24.75;102039.06;5049867;28;20025;-67
2022/06/13 11:50:53;;;;;;;4.07;0.95;;;;;;;33.98;25.25;102034.66;5049730;28;20025;-67
2022/06/13 11:53:37;;;;;;;4.75;1.27;;;;;;;34.58;24.97;102045.03;5049859;28;20110;-67
2022/06/13 11:56:25;;;;;;;4.68;1.30;;;;;;;35.22;24.60;102040.50;5049300;28;20118;-67
2022/06/13 11:58:52;;;;;;;1.95;0.75;;;;;;;35.80;23.90;102026.53;5046632;28;20048;-67
2022/06/13 12:01:31;;;;;;;3.25;1.00;;;;;;;36.31;23.76;102032.47;5049917;28;20031;-68
2022/06/13 12:04:18;;;;;;;2.00;0.60;;;;;;;36.78;23.19;102027.69;5049766;28;20025;-67
2022/06/13 12:06:47;;;;;;;5.35;0.80;;;;;;;37.07;23.00;102036.44;5040675;28;20067;-68
2022/06/13 12:09:17;;;;;;;1.45;0.77;;;;;;;37.38;22.73;102021.41;5036379;28;20068;-68
2022/06/13 12:11:54;;;;;;;1.52;0.60;;;;;;;37.53;22.92;102018.63;5036118;28;20064;-68